CCD8829 ZYTL-ZBAD
Flight info
| Callsign | CCD8829 |
|---|---|
| Flight time | N/A |
| Altitude | 301 |
| Route | ORAVA W576 OVTUP W55 DUMAP |
| Aircraft | B738/M-V/N |
Departure
| Time | 2026-05-04 11:35 |
|---|---|
| Airport | Dalian Zhoushuizi International Airport (ZYTL) |
Arrival
| Time | N/A |
|---|---|
| Airport | Beijing Daxing International Airport (ZBAD) |
| Time | Latitude | Longitude | Altitude | Speed | Heading |
|---|---|---|---|---|---|
| 2026-05-04 11:22 | 38.96372 | 121.52091 | 115 ft | 0 kts | 275° |
| 2026-05-04 11:24 | 38.96372 | 121.52090 | 115 ft | 0 kts | 275° |
| 2026-05-04 11:25 | 38.96373 | 121.52085 | 115 ft | 3 kts | 275° |
| 2026-05-04 11:26 | 38.96380 | 121.52046 | 115 ft | 0 kts | 313° |
| 2026-05-04 11:27 | 38.96448 | 121.52034 | 115 ft | 0 kts | 2° |
| 2026-05-04 11:28 | 38.96473 | 121.52041 | 115 ft | 10 kts | 25° |
| 2026-05-04 11:28 | 38.96493 | 121.52133 | 115 ft | 12 kts | 96° |
| 2026-05-04 11:28 | 38.96485 | 121.52235 | 115 ft | 11 kts | 96° |
| 2026-05-04 11:28 | 38.96477 | 121.52333 | 115 ft | 11 kts | 96° |
| 2026-05-04 11:29 | 38.96468 | 121.52446 | 115 ft | 18 kts | 95° |
| 2026-05-04 11:29 | 38.96451 | 121.52655 | 115 ft | 26 kts | 96° |
| 2026-05-04 11:29 | 38.96433 | 121.52870 | 115 ft | 23 kts | 96° |
| 2026-05-04 11:29 | 38.96417 | 121.53077 | 115 ft | 25 kts | 96° |
| 2026-05-04 11:31 | 38.96324 | 121.54599 | 115 ft | 26 kts | 95° |
| 2026-05-04 11:33 | 38.96406 | 121.55448 | 115 ft | 12 kts | 336° |
| 2026-05-04 11:33 | 38.96442 | 121.55357 | 115 ft | 12 kts | 275° |
| 2026-05-04 11:33 | 38.96443 | 121.55346 | 115 ft | 0 kts | 274° |
| 2026-05-04 11:34 | 38.96447 | 121.55300 | 115 ft | 19 kts | 276° |
| 2026-05-04 11:34 | 38.96477 | 121.54891 | 115 ft | 83 kts | 275° |
| 2026-05-04 11:34 | 38.96540 | 121.53831 | 117 ft | 153 kts | 273° |
| 2026-05-04 11:35 | 38.96620 | 121.52337 | 637 ft | 172 kts | 272° |
| 2026-05-04 11:35 | 38.96714 | 121.50817 | 1611 ft | 170 kts | 271° |
| 2026-05-04 11:35 | 38.96827 | 121.49274 | 2451 ft | 183 kts | 272° |
| 2026-05-04 11:35 | 38.96919 | 121.47601 | 3272 ft | 191 kts | 272° |
| 2026-05-04 11:36 | 38.96973 | 121.45869 | 4090 ft | 196 kts | 272° |
| 2026-05-04 11:36 | 38.96988 | 121.44121 | 5033 ft | 194 kts | 271° |
| 2026-05-04 11:36 | 38.96967 | 121.42380 | 5841 ft | 202 kts | 270° |
| 2026-05-04 11:36 | 38.96936 | 121.40439 | 6125 ft | 233 kts | 270° |
| 2026-05-04 11:37 | 38.96710 | 121.38253 | 6425 ft | 267 kts | 256° |
| 2026-05-04 11:37 | 38.96423 | 121.35997 | 7638 ft | 248 kts | 269° |
| 2026-05-04 11:37 | 38.96610 | 121.33977 | 9269 ft | 214 kts | 285° |
| 2026-05-04 11:37 | 38.97348 | 121.32344 | 9986 ft | 225 kts | 314° |
| 2026-05-04 11:38 | 38.98663 | 121.31153 | 10586 ft | 231 kts | 338° |
| 2026-05-04 11:38 | 39.00262 | 121.30859 | 11450 ft | 236 kts | 3° |
| 2026-05-04 11:38 | 39.01861 | 121.31465 | 12172 ft | 246 kts | 25° |
| 2026-05-04 11:38 | 39.03215 | 121.32826 | 12966 ft | 250 kts | 45° |
| 2026-05-04 11:39 | 39.04152 | 121.34699 | 13888 ft | 248 kts | 64° |
| 2026-05-04 11:39 | 39.04595 | 121.36785 | 14792 ft | 244 kts | 80° |
| 2026-05-04 11:40 | 39.00711 | 121.50804 | 16211 ft | 286 kts | 126° |
| 2026-05-04 11:41 | 38.99501 | 121.52593 | 17635 ft | 249 kts | 133° |
| 2026-05-04 11:41 | 38.98265 | 121.54019 | 18592 ft | 244 kts | 141° |
| 2026-05-04 11:41 | 38.96734 | 121.55359 | 18262 ft | 290 kts | 149° |
| 2026-05-04 11:41 | 38.94910 | 121.56571 | 18770 ft | 296 kts | 156° |
| 2026-05-04 11:42 | 38.92935 | 121.57358 | 19336 ft | 302 kts | 176° |
| 2026-05-04 11:42 | 38.90876 | 121.56992 | 19987 ft | 296 kts | 201° |
| 2026-05-04 11:42 | 38.88907 | 121.56182 | 20710 ft | 298 kts | 199° |
| 2026-05-04 11:42 | 38.86811 | 121.55664 | 21043 ft | 317 kts | 187° |
| 2026-05-04 11:43 | 38.84541 | 121.55430 | 21280 ft | 334 kts | 194° |
| 2026-05-04 11:43 | 38.82466 | 121.53987 | 20976 ft | 355 kts | 230° |
| 2026-05-04 11:43 | 38.81068 | 121.51424 | 21781 ft | 345 kts | 244° |
| 2026-05-04 11:43 | 38.79982 | 121.48709 | 22626 ft | 340 kts | 251° |
| 2026-05-04 11:44 | 38.79287 | 121.45816 | 23179 ft | 341 kts | 262° |
| 2026-05-04 11:44 | 38.78995 | 121.42798 | 23440 ft | 352 kts | 269° |
| 2026-05-04 11:44 | 38.78689 | 121.39577 | 23756 ft | 366 kts | 261° |
| 2026-05-04 11:44 | 38.77688 | 121.36592 | 24282 ft | 378 kts | 236° |
| 2026-05-04 11:45 | 38.75491 | 121.34840 | 25090 ft | 386 kts | 185° |
| 2026-05-04 11:45 | 38.73456 | 121.36502 | 25474 ft | 372 kts | 82° |
| 2026-05-04 11:45 | 38.73068 | 121.39846 | 25511 ft | 390 kts | 111° |
| 2026-05-04 11:45 | 38.71652 | 121.42783 | 26372 ft | 378 kts | 132° |
| 2026-05-04 11:46 | 38.69817 | 121.45305 | 26507 ft | 397 kts | 135° |
| 2026-05-04 11:46 | 38.67863 | 121.47767 | 27156 ft | 396 kts | 137° |
| 2026-05-04 11:46 | 38.65784 | 121.50210 | 27074 ft | 416 kts | 143° |
| 2026-05-04 11:46 | 38.63234 | 121.51575 | 28227 ft | 381 kts | 175° |